Terminal Aerodrome Forecast
Issued by NWS

Home | Current Version | Previous Version | Text Only | Print | Product List | Glossary Off
Versions: 1 2 3 4 5 6 7 8 9 10 11 12 13 14 15 16 17 18 19 20 21 22 23 24 25 26 27 28 29 30 31 32 33 34 35 36 37 38 39 40 41 42 43 44 45 46 47

207
FTUS43 KGRB 132225 AAC
TAFRHI
TAF AMD
KRHI 132225Z 1322/1418 03006KT 3SM -SN SCT025 OVC035
      TEMPO 1322/1324 2SM -SN OVC025
     FM140300 35003KT P6SM BKN030
     FM140900 27003KT P6SM OVC018=

USA.gov is the U.S. government's official web portal to all federal, state and local government web resources and services.